Time;durP1;ratioP1;P1;durP2;ratioP2;P2;SDS_P1;SDS_P2;PMS_P1;PMS_P2;Temp;Humidity;BMP_temperature;BMP_pressure;BME280_temperature;BME280_humidity;BME280_pressure;Samples;Min_cycle;Max_cycle;Signal;HPM_P1;HPM_P2
2022/04/11 00:02:06;;;;;;;2.47;1.80;;;20.50;39.00;;;;;;5112196;27;20089;-57
2022/04/11 00:04:31;;;;;;;3.63;1.88;;;20.50;38.30;;;;;;5113998;27;20104;-58
2022/04/11 00:06:57;;;;;;;2.53;1.70;;;20.50;38.30;;;;;;5110820;27;20071;-58
2022/04/11 00:09:22;;;;;;;2.72;1.95;;;20.50;38.30;;;;;;5111915;27;20589;-57
2022/04/11 00:11:49;;;;;;;2.95;2.20;;;20.50;38.30;;;;;;5112260;27;20435;-57
2022/04/11 00:14:14;;;;;;;2.22;1.83;;;20.50;38.30;;;;;;5116229;27;20051;-58
2022/04/11 00:16:40;;;;;;;2.55;1.77;;;20.50;38.30;;;;;;5115110;28;20131;-58
2022/04/11 00:19:06;;;;;;;2.53;1.63;;;20.50;38.30;;;;;;5112903;27;20050;-58
2022/04/11 00:21:32;;;;;;;2.30;1.50;;;20.50;38.30;;;;;;5114403;27;20504;-58
2022/04/11 00:23:57;;;;;;;3.72;1.73;;;20.50;38.30;;;;;;5116058;27;20129;-57
2022/04/11 00:26:23;;;;;;;1.70;1.58;;;20.50;38.30;;;;;;5117974;27;20043;-57
2022/04/11 00:28:49;;;;;;;3.90;1.90;;;20.50;38.20;;;;;;5114935;27;20047;-58
2022/04/11 00:31:14;;;;;;;2.05;1.75;;;20.50;38.20;;;;;;5116678;27;20090;-58
2022/04/11 00:33:40;;;;;;;1.52;1.33;;;20.50;38.20;;;;;;5118936;27;20039;-58
2022/04/11 00:36:06;;;;;;;2.15;1.50;;;20.50;38.20;;;;;;5111214;27;20562;-58
2022/04/11 00:38:31;;;;;;;2.83;1.90;;;20.50;38.10;;;;;;5116046;27;20462;-58
2022/04/11 00:40:57;;;;;;;1.88;1.42;;;20.40;38.00;;;;;;5116415;27;20035;-58
2022/04/11 00:43:36;;;;;;;1.95;1.63;;;20.40;38.00;;;;;;5113930;27;20085;-57
2022/04/11 00:46:03;;;;;;;1.45;1.35;;;20.40;38.00;;;;;;5117094;27;20035;-58
2022/04/11 00:48:29;;;;;;;1.65;1.40;;;20.40;38.00;;;;;;5114551;27;20120;-58
2022/04/11 00:51:22;;;;;;;1.92;1.48;;;20.40;38.00;;;;;;5115698;27;20051;-57
2022/04/11 00:53:50;;;;;;;1.92;1.23;;;20.40;37.90;;;;;;5112407;27;20048;-57
2022/04/11 00:56:17;;;;;;;2.72;1.45;;;20.40;38.00;;;;;;5118815;27;20079;-58
2022/04/11 00:58:43;;;;;;;1.88;1.40;;;20.40;38.00;;;;;;5116865;27;20047;-57
2022/04/11 01:01:09;;;;;;;2.15;1.52;;;20.40;38.00;;;;;;5116209;27;20050;-57
2022/04/11 01:03:35;;;;;;;2.00;1.27;;;20.40;37.90;;;;;;5116646;27;20039;-58
2022/04/11 01:06:02;;;;;;;1.92;1.23;;;20.30;37.90;;;;;;5115901;27;20099;-58
2022/04/11 01:08:28;;;;;;;1.50;1.25;;;20.40;37.90;;;;;;5117015;27;20042;-57
2022/04/11 01:10:54;;;;;;;1.30;1.10;;;20.30;37.80;;;;;;5113922;27;20040;-58
2022/04/11 01:13:19;;;;;;;2.35;1.35;;;20.30;37.80;;;;;;5115846;27;20063;-58
2022/04/11 01:15:59;;;;;;;2.08;1.25;;;20.30;37.80;;;;;;5115925;27;20601;-58
2022/04/11 01:18:25;;;;;;;1.45;1.30;;;20.30;37.70;;;;;;5117563;27;20066;-57
2022/04/11 01:20:51;;;;;;;1.80;1.20;;;20.30;37.80;;;;;;5118346;27;20490;-57
2022/04/11 01:23:17;;;;;;;2.80;1.50;;;20.30;37.80;;;;;;5115103;27;20039;-57
2022/04/11 01:25:51;;;;;;;2.58;1.40;;;20.30;37.80;;;;;;5115021;27;20770;-57
2022/04/11 01:28:17;;;;;;;1.55;1.45;;;20.30;38.40;;;;;;5115460;27;20128;-57
2022/04/11 01:30:43;;;;;;;1.60;1.33;;;20.30;37.70;;;;;;5116662;27;20145;-57
2022/04/11 01:33:27;;;;;;;1.70;1.27;;;20.30;37.60;;;;;;5116876;27;20061;-57
2022/04/11 01:35:53;;;;;;;1.30;1.20;;;20.30;37.60;;;;;;5117566;27;20048;-58
2022/04/11 01:38:18;;;;;;;1.40;1.20;;;20.20;37.50;;;;;;5114506;27;20050;-57
2022/04/11 01:40:54;;;;;;;2.25;1.38;;;20.20;37.60;;;;;;5114812;27;20043;-58
2022/04/11 01:43:21;;;;;;;1.30;1.20;;;20.20;37.50;;;;;;5115768;27;20050;-57
2022/04/11 01:45:46;;;;;;;2.17;1.00;;;20.20;37.50;;;;;;5116172;27;20047;-59
2022/04/11 01:48:12;;;;;;;1.65;1.05;;;20.20;37.50;;;;;;5114747;27;20036;-57
2022/04/11 01:50:38;;;;;;;1.40;1.17;;;20.20;37.50;;;;;;5117014;27;20769;-57
2022/04/11 01:53:07;;;;;;;1.80;1.35;;;20.20;37.50;;;;;;5112884;27;20041;-58
2022/04/11 01:55:32;;;;;;;1.75;1.10;;;20.20;37.40;;;;;;5116874;27;20106;-57
2022/04/11 01:57:59;;;;;;;1.20;1.10;;;20.20;37.40;;;;;;5116231;27;20558;-57
2022/04/11 02:00:24;;;;;;;2.40;1.10;;;20.20;37.40;;;;;;5112823;27;20127;-58
2022/04/11 02:02:50;;;;;;;2.03;1.30;;;20.20;37.40;;;;;;5108239;27;20039;-59
2022/04/11 02:05:15;;;;;;;2.78;1.40;;;20.20;37.40;;;;;;5121161;27;20634;-58
2022/04/11 02:07:41;;;;;;;1.30;1.15;;;20.20;37.40;;;;;;5114645;27;20050;-58
2022/04/11 02:10:07;;;;;;;1.75;1.17;;;20.20;37.30;;;;;;5115047;27;20770;-56
2022/04/11 02:12:32;;;;;;;1.25;1.13;;;20.20;37.30;;;;;;5114066;27;20055;-57
2022/04/11 02:14:58;;;;;;;1.52;1.33;;;20.20;37.30;;;;;;5112370;27;20050;-58
2022/04/11 02:17:23;;;;;;;1.58;1.20;;;20.10;37.30;;;;;;5114562;27;20394;-58
2022/04/11 02:19:49;;;;;;;4.25;1.17;;;20.10;37.20;;;;;;5111163;27;20051;-57
2022/04/11 02:22:14;;;;;;;2.00;1.10;;;20.10;37.20;;;;;;5115852;27;20047;-58
2022/04/11 02:24:40;;;;;;;1.83;1.42;;;20.10;37.30;;;;;;5114193;27;20047;-58
2022/04/11 02:27:06;;;;;;;1.67;1.10;;;20.10;37.20;;;;;;5113615;27;20074;-58
2022/04/11 02:29:31;;;;;;;1.85;1.10;;;20.10;37.20;;;;;;5117328;27;20051;-58
2022/04/11 02:31:57;;;;;;;1.20;1.10;;;20.10;37.20;;;;;;5115740;27;20047;-57
2022/04/11 02:34:25;;;;;;;2.40;1.25;;;20.10;37.20;;;;;;5112099;27;20045;-57
2022/04/11 02:36:50;;;;;;;1.30;1.00;;;20.10;37.10;;;;;;5113525;27;20055;-57
2022/04/11 02:39:16;;;;;;;1.52;0.98;;;20.10;37.20;;;;;;5111390;27;20051;-56
2022/04/11 02:41:41;;;;;;;2.10;1.20;;;20.10;37.10;;;;;;5112418;27;20046;-58
2022/04/11 02:44:07;;;;;;;1.20;1.00;;;20.10;37.60;;;;;;5115885;27;20047;-58
2022/04/11 02:46:32;;;;;;;2.60;1.20;;;20.10;37.10;;;;;;5115829;27;20044;-58
2022/04/11 02:48:58;;;;;;;2.75;1.30;;;20.10;37.10;;;;;;5111675;27;20073;-57
2022/04/11 02:51:24;;;;;;;1.95;1.05;;;20.00;37.10;;;;;;5115516;27;20044;-58
2022/04/11 02:53:50;;;;;;;1.63;1.20;;;20.00;37.10;;;;;;5113539;27;20625;-57
2022/04/11 02:56:15;;;;;;;1.55;1.30;;;20.00;37.10;;;;;;5116176;27;20159;-58
2022/04/11 02:58:41;;;;;;;2.08;1.20;;;20.00;37.00;;;;;;5114600;27;20138;-58
2022/04/11 03:01:06;;;;;;;1.25;0.98;;;20.00;37.00;;;;;;5114744;27;20795;-57
2022/04/11 03:03:32;;;;;;;1.30;1.20;;;20.00;37.10;;;;;;5113965;27;20055;-59
2022/04/11 03:05:57;;;;;;;1.85;1.35;;;20.00;37.00;;;;;;5112843;27;20050;-57
2022/04/11 03:08:23;;;;;;;1.27;1.00;;;20.00;37.00;;;;;;5111830;27;20051;-57
2022/04/11 03:10:48;;;;;;;1.48;1.10;;;20.00;37.00;;;;;;5112068;27;20092;-57
2022/04/11 03:13:14;;;;;;;1.80;1.30;;;20.00;37.10;;;;;;5112448;27;20063;-58
2022/04/11 03:15:39;;;;;;;1.20;1.10;;;20.00;37.00;;;;;;5117921;27;20043;-57
2022/04/11 03:18:05;;;;;;;1.13;1.00;;;20.00;37.00;;;;;;5113124;27;20066;-58
2022/04/11 03:20:30;;;;;;;1.52;1.20;;;20.00;37.00;;;;;;5114928;27;20043;-58
2022/04/11 03:22:57;;;;;;;1.75;1.20;;;20.00;37.00;;;;;;5113796;27;20088;-57
2022/04/11 03:25:23;;;;;;;1.20;1.00;;;20.00;37.00;;;;;;5113209;27;20047;-57
2022/04/11 03:27:49;;;;;;;1.10;1.00;;;20.00;37.00;;;;;;5112924;27;20043;-58
2022/04/11 03:30:14;;;;;;;1.85;1.05;;;20.00;37.00;;;;;;5113056;27;20121;-58
2022/04/11 03:32:40;;;;;;;1.95;1.25;;;19.90;36.90;;;;;;5114158;27;20083;-57
2022/04/11 03:35:06;;;;;;;1.30;1.10;;;19.90;37.00;;;;;;5115188;27;20170;-57
2022/04/11 03:37:32;;;;;;;1.20;1.10;;;19.90;37.00;;;;;;5112856;27;20058;-58
2022/04/11 03:39:57;;;;;;;1.20;1.00;;;19.90;37.00;;;;;;5112123;27;20051;-57
2022/04/11 03:42:23;;;;;;;1.55;1.17;;;19.90;37.00;;;;;;5110874;27;20040;-58
2022/04/11 03:44:48;;;;;;;1.23;1.13;;;19.90;36.90;;;;;;5112550;27;20542;-58
2022/04/11 03:47:14;;;;;;;1.70;1.10;;;19.90;37.00;;;;;;5115417;27;20075;-58
2022/04/11 03:49:39;;;;;;;1.88;1.20;;;19.90;36.90;;;;;;5115254;27;20478;-57
2022/04/11 03:52:05;;;;;;;1.65;1.30;;;19.80;36.90;;;;;;5112303;27;20104;-57
2022/04/11 03:54:31;;;;;;;1.50;1.27;;;19.90;37.00;;;;;;5113960;27;20070;-58
2022/04/11 03:56:56;;;;;;;1.67;1.38;;;19.80;36.90;;;;;;5114198;27;20565;-57
2022/04/11 03:59:22;;;;;;;1.75;1.10;;;19.80;36.90;;;;;;5111488;27;20043;-57
2022/04/11 04:01:47;;;;;;;1.40;1.20;;;19.80;37.00;;;;;;5108040;27;20032;-57
2022/04/11 04:04:13;;;;;;;1.73;1.30;;;19.90;37.00;;;;;;5111037;28;20112;-56
2022/04/11 04:06:38;;;;;;;1.08;0.90;;;19.80;36.90;;;;;;5109441;27;20163;-57
2022/04/11 04:09:04;;;;;;;1.23;1.00;;;19.80;36.90;;;;;;5113776;28;20945;-57
2022/04/11 04:11:29;;;;;;;1.00;0.90;;;19.80;36.90;;;;;;5114186;27;20039;-57
2022/04/11 04:13:55;;;;;;;2.15;1.38;;;19.80;36.90;;;;;;5113817;27;20051;-58
2022/04/11 04:16:20;;;;;;;1.52;1.30;;;19.80;36.90;;;;;;5116242;27;20047;-57
2022/04/11 04:18:46;;;;;;;1.60;1.10;;;19.80;36.90;;;;;;5114974;28;20055;-57
2022/04/11 04:21:11;;;;;;;1.67;1.23;;;19.80;36.80;;;;;;5106918;27;20047;-57
2022/04/11 04:23:37;;;;;;;1.02;0.93;;;19.80;36.90;;;;;;5114139;28;20104;-57
2022/04/11 04:26:02;;;;;;;1.73;1.10;;;19.80;36.90;;;;;;5113091;27;20051;-58
2022/04/11 04:28:28;;;;;;;1.17;1.08;;;19.80;36.90;;;;;;5114638;28;20039;-58
2022/04/11 04:30:53;;;;;;;1.15;1.05;;;19.80;36.90;;;;;;5111796;27;20440;-57
2022/04/11 04:33:19;;;;;;;1.40;1.20;;;19.80;36.90;;;;;;5114411;28;20048;-57
2022/04/11 04:35:45;;;;;;;1.63;1.17;;;19.80;37.00;;;;;;5112487;28;20544;-56
2022/04/11 04:38:10;;;;;;;2.67;1.02;;;19.80;37.10;;;;;;5112649;28;20105;-57
2022/04/11 04:40:36;;;;;;;2.35;1.15;;;19.80;37.10;;;;;;5114301;27;20042;-58
2022/04/11 04:43:01;;;;;;;1.58;1.10;;;19.80;37.10;;;;;;5113443;28;20163;-58
2022/04/11 04:45:27;;;;;;;1.17;1.08;;;19.90;37.10;;;;;;5111783;28;20047;-59
2022/04/11 04:47:53;;;;;;;1.05;0.95;;;19.90;37.10;;;;;;5112106;27;20047;-57
2022/04/11 04:50:18;;;;;;;2.45;1.20;;;19.90;37.30;;;;;;5110598;27;20059;-57
2022/04/11 04:52:44;;;;;;;2.85;1.33;;;19.90;37.40;;;;;;5111759;28;20066;-57
2022/04/11 04:55:09;;;;;;;1.17;1.08;;;19.90;37.40;;;;;;5113872;28;20132;-57
2022/04/11 04:57:35;;;;;;;2.92;1.23;;;19.90;37.40;;;;;;5118578;28;20043;-56
2022/04/11 05:00:01;;;;;;;2.78;1.17;;;19.90;37.50;;;;;;5111331;27;20508;-58
2022/04/11 05:02:34;;;;;;;1.48;1.20;;;19.90;37.50;;;;;;5114185;27;20126;-58
2022/04/11 05:05:08;;;;;;;2.08;1.00;;;19.90;37.40;;;;;;5120313;28;20099;-58
2022/04/11 05:07:34;;;;;;;2.45;1.05;;;19.90;37.40;;;;;;5111577;28;20728;-57
2022/04/11 05:10:00;;;;;;;1.10;1.00;;;19.90;37.50;;;;;;5116086;27;20040;-57
2022/04/11 05:12:26;;;;;;;2.20;1.27;;;19.90;37.50;;;;;;5116187;27;20051;-57
2022/04/11 05:14:51;;;;;;;1.33;1.00;;;19.90;37.40;;;;;;5116895;27;20061;-57
2022/04/11 05:17:17;;;;;;;1.20;0.90;;;19.90;37.40;;;;;;5115041;27;20070;-57
2022/04/11 05:19:42;;;;;;;2.15;0.95;;;19.90;37.30;;;;;;5119942;27;20039;-57
2022/04/11 05:22:08;;;;;;;1.52;1.00;;;20.00;37.40;;;;;;5115685;27;20662;-57
2022/04/11 05:24:33;;;;;;;2.78;1.10;;;20.00;37.40;;;;;;5116143;27;20047;-57
2022/04/11 05:26:59;;;;;;;1.15;1.00;;;20.00;37.40;;;;;;5114843;27;20047;-57
2022/04/11 05:29:24;;;;;;;2.15;0.90;;;20.00;37.30;;;;;;5115933;27;20567;-57
2022/04/11 05:31:50;;;;;;;1.65;1.02;;;20.00;37.30;;;;;;5115111;27;20051;-57
2022/04/11 05:34:15;;;;;;;1.70;0.80;;;20.00;37.40;;;;;;5117106;27;20053;-57
2022/04/11 05:36:41;;;;;;;1.00;0.90;;;20.00;37.30;;;;;;5114542;27;20490;-57
2022/04/11 05:39:06;;;;;;;1.02;0.90;;;20.00;37.30;;;;;;5117643;27;20142;-57
2022/04/11 05:41:32;;;;;;;1.60;1.10;;;20.00;37.40;;;;;;5115364;27;20040;-58
2022/04/11 05:43:57;;;;;;;3.33;0.98;;;20.10;37.30;;;;;;5115437;27;20139;-56
2022/04/11 05:46:23;;;;;;;1.08;0.90;;;20.00;37.30;;;;;;5117624;27;20159;-57
2022/04/11 05:48:48;;;;;;;0.80;0.80;;;20.10;37.40;;;;;;5116501;27;20043;-58
2022/04/11 05:51:14;;;;;;;2.20;1.10;;;20.10;37.40;;;;;;5113728;27;20092;-57
2022/04/11 05:53:40;;;;;;;2.00;1.00;;;20.10;37.30;;;;;;5117362;27;20126;-57
2022/04/11 05:56:05;;;;;;;1.45;1.00;;;20.10;37.30;;;;;;5117696;27;20068;-57
2022/04/11 05:58:31;;;;;;;1.48;0.93;;;20.10;37.40;;;;;;5117316;27;20780;-57
2022/04/11 06:00:57;;;;;;;2.50;0.98;;;20.10;37.30;;;;;;5112060;27;20518;-57
2022/04/11 06:03:22;;;;;;;2.75;1.25;;;20.10;37.40;;;;;;5113533;27;20877;-57
2022/04/11 06:05:47;;;;;;;1.15;1.00;;;20.10;37.40;;;;;;5113293;27;20054;-57
2022/04/11 06:08:13;;;;;;;1.02;0.93;;;20.10;38.20;;;;;;5113543;27;20176;-58
2022/04/11 06:10:40;;;;;;;1.10;1.00;;;20.10;37.50;;;;;;5113721;27;20047;-56
2022/04/11 06:13:05;;;;;;;0.85;0.85;;;20.10;37.50;;;;;;5114125;27;20150;-57
2022/04/11 06:15:31;;;;;;;2.35;1.17;;;20.10;37.50;;;;;;5112829;27;20046;-57
2022/04/11 06:17:57;;;;;;;1.88;1.00;;;20.10;37.50;;;;;;5111940;27;20043;-58
2022/04/11 06:20:23;;;;;;;1.55;0.90;;;20.10;37.50;;;;;;5111113;27;20047;-57
2022/04/11 06:22:49;;;;;;;0.90;0.90;;;20.20;37.60;;;;;;5112948;27;20136;-57
2022/04/11 06:25:14;;;;;;;2.00;1.00;;;20.20;37.60;;;;;;5115846;27;20042;-57
2022/04/11 06:27:40;;;;;;;2.47;1.20;;;20.20;37.50;;;;;;5115842;27;20086;-57
2022/04/11 06:30:06;;;;;;;2.72;1.10;;;20.20;37.60;;;;;;5115407;27;20052;-57
2022/04/11 06:32:33;;;;;;;1.67;1.08;;;20.20;37.50;;;;;;5116853;27;20062;-57
2022/04/11 06:34:59;;;;;;;1.48;1.10;;;20.20;37.60;;;;;;5115155;27;20039;-57
2022/04/11 06:37:24;;;;;;;1.70;1.10;;;20.20;37.50;;;;;;5114250;27;20049;-57
2022/04/11 06:39:50;;;;;;;1.80;1.10;;;20.20;37.50;;;;;;5114550;27;20083;-57
2022/04/11 06:42:16;;;;;;;1.90;1.10;;;20.20;37.60;;;;;;5112873;27;20047;-57
2022/04/11 06:44:42;;;;;;;1.30;1.10;;;20.20;37.60;;;;;;5114601;27;20066;-58
2022/04/11 06:47:08;;;;;;;1.33;1.05;;;20.20;37.60;;;;;;5113992;27;20055;-57
2022/04/11 06:49:35;;;;;;;2.80;1.00;;;20.20;37.70;;;;;;5113288;27;20082;-58
2022/04/11 06:52:00;;;;;;;3.10;1.25;;;20.30;37.70;;;;;;5113749;27;20083;-57
2022/04/11 06:54:27;;;;;;;2.83;1.23;;;20.30;37.80;;;;;;5113486;27;20093;-57
2022/04/11 06:56:53;;;;;;;1.65;1.00;;;20.30;37.80;;;;;;5115479;27;20153;-57
2022/04/11 06:59:18;;;;;;;2.33;1.30;;;20.30;37.80;;;;;;5114121;27;20070;-57
2022/04/11 07:01:44;;;;;;;2.78;1.20;;;20.30;37.80;;;;;;5115169;27;20161;-58
2022/04/11 07:04:09;;;;;;;1.90;1.10;;;20.30;37.80;;;;;;5113661;27;20047;-58
2022/04/11 07:06:35;;;;;;;4.50;1.42;;;20.30;37.80;;;;;;5114211;27;20035;-57
2022/04/11 07:09:00;;;;;;;1.58;1.17;;;20.30;37.80;;;;;;5114222;27;20521;-57
2022/04/11 07:11:26;;;;;;;1.42;1.20;;;20.40;37.90;;;;;;5116614;27;20039;-57
2022/04/11 07:13:51;;;;;;;1.77;1.13;;;20.40;38.00;;;;;;5113956;27;20058;-57
2022/04/11 07:16:17;;;;;;;3.13;1.10;;;20.40;38.00;;;;;;5112965;27;20065;-57
2022/04/11 07:18:43;;;;;;;2.58;1.20;;;20.40;38.10;;;;;;5112597;27;20039;-58
2022/04/11 07:21:08;;;;;;;3.20;1.27;;;20.40;38.20;;;;;;5113645;27;20055;-57
2022/04/11 07:23:34;;;;;;;2.53;1.52;;;20.40;38.20;;;;;;5110655;27;20448;-57
2022/04/11 07:26:00;;;;;;;3.47;1.70;;;20.40;38.20;;;;;;5111614;27;20114;-58
2022/04/11 07:28:25;;;;;;;2.45;1.40;;;20.40;38.30;;;;;;5113739;27;20051;-57
2022/04/11 07:30:51;;;;;;;3.10;1.30;;;20.40;38.30;;;;;;5113841;27;20952;-57
2022/04/11 07:33:17;;;;;;;2.42;1.40;;;20.40;38.30;;;;;;5113199;27;20555;-57
2022/04/11 07:35:43;;;;;;;2.15;1.20;;;20.40;38.30;;;;;;5114727;27;20055;-58
2022/04/11 07:38:08;;;;;;;3.70;1.30;;;20.50;38.50;;;;;;5109962;27;20058;-58
2022/04/11 07:40:34;;;;;;;5.45;1.55;;;20.50;38.60;;;;;;5112269;27;20569;-58
2022/04/11 07:42:59;;;;;;;2.67;1.30;;;20.50;38.60;;;;;;5111226;27;20040;-58
2022/04/11 07:45:25;;;;;;;4.18;1.45;;;20.50;38.70;;;;;;5110397;27;20075;-58
2022/04/11 07:47:50;;;;;;;2.75;1.48;;;20.50;38.80;;;;;;5107579;27;20047;-58
2022/04/11 07:50:16;;;;;;;2.42;1.25;;;20.50;39.70;;;;;;5113976;27;20141;-58
2022/04/11 07:52:43;;;;;;;3.80;1.52;;;20.50;39.00;;;;;;5116367;27;20074;-58
2022/04/11 07:55:12;;;;;;;2.67;1.67;;;20.50;39.10;;;;;;5115058;27;20047;-57
2022/04/11 07:57:37;;;;;;;2.03;1.40;;;20.50;39.10;;;;;;5113780;27;20512;-58
2022/04/11 08:00:06;;;;;;;1.35;1.10;;;20.60;39.20;;;;;;5112968;28;20039;-57
2022/04/11 08:02:32;;;;;;;3.22;1.13;;;20.60;39.20;;;;;;5114215;27;20062;-57
2022/04/11 08:05:01;;;;;;;4.13;1.42;;;20.60;39.40;;;;;;5114025;28;20132;-58
2022/04/11 08:07:27;;;;;;;3.38;1.50;;;20.60;39.40;;;;;;5113753;28;20042;-58
2022/04/11 08:09:52;;;;;;;4.85;1.52;;;20.60;39.60;;;;;;5113448;27;20120;-58
2022/04/11 08:12:18;;;;;;;2.38;1.52;;;20.60;39.70;;;;;;5111932;28;20167;-58
2022/04/11 08:14:44;;;;;;;6.25;1.50;;;20.60;40.00;;;;;;5112802;28;20123;-57
2022/04/11 08:17:09;;;;;;;2.72;1.40;;;20.70;40.30;;;;;;5114049;28;20047;-58
2022/04/11 08:19:35;;;;;;;2.85;1.52;;;20.70;40.30;;;;;;5111823;27;20052;-57
2022/04/11 08:22:01;;;;;;;1.95;1.30;;;20.70;40.40;;;;;;5114570;28;20828;-57
2022/04/11 08:24:26;;;;;;;2.90;1.40;;;20.70;40.50;;;;;;5114046;28;20264;-58
2022/04/11 08:26:52;;;;;;;1.25;1.08;;;20.80;40.70;;;;;;5114155;28;20054;-58
2022/04/11 08:29:17;;;;;;;2.22;1.38;;;20.80;40.60;;;;;;5113482;28;20139;-57
2022/04/11 08:31:43;;;;;;;2.33;1.70;;;20.80;40.70;;;;;;5114525;28;20046;-58
2022/04/11 08:34:09;;;;;;;3.00;1.80;;;20.80;40.80;;;;;;5110895;27;20071;-57
2022/04/11 08:36:35;;;;;;;2.05;1.60;;;20.80;40.70;;;;;;5113717;27;20071;-58
2022/04/11 08:39:01;;;;;;;4.97;1.65;;;20.80;40.70;;;;;;5113387;28;20090;-58
2022/04/11 08:41:36;;;;;;;3.95;1.45;;;20.80;40.70;;;;;;5112700;28;20043;-60
2022/04/11 08:44:05;;;;;;;2.15;1.30;;;20.80;40.80;;;;;;5113193;27;20126;-57
2022/04/11 08:46:33;;;;;;;2.22;1.40;;;20.80;40.80;;;;;;5110649;27;20502;-58
2022/04/11 08:49:09;;;;;;;2.90;1.55;;;20.90;40.90;;;;;;5116009;27;20043;-58
2022/04/11 08:51:35;;;;;;;3.15;1.73;;;20.90;40.80;;;;;;5116291;27;20101;-58
2022/04/11 08:54:03;;;;;;;2.95;1.70;;;20.90;40.80;;;;;;5117426;27;20047;-58
2022/04/11 08:56:29;;;;;;;3.45;1.75;;;20.90;40.70;;;;;;5116404;27;20116;-58
2022/04/11 08:58:55;;;;;;;4.47;1.73;;;20.90;40.70;;;;;;5114364;27;20050;-58
2022/04/11 09:01:21;;;;;;;2.78;1.30;;;20.90;40.70;;;;;;5114892;27;20607;-58
2022/04/11 09:03:48;;;;;;;2.20;1.38;;;20.90;40.70;;;;;;5113112;27;20043;-57
2022/04/11 09:06:15;;;;;;;2.47;1.75;;;20.90;40.70;;;;;;5115892;27;20049;-58
2022/04/11 09:08:50;;;;;;;2.38;1.45;;;20.90;40.90;;;;;;5116157;27;20055;-57
2022/04/11 09:11:35;;;;;;;4.28;1.33;;;21.00;41.00;;;;;;5114776;27;20062;-58
2022/04/11 09:14:03;;;;;;;2.38;1.80;;;20.90;40.90;;;;;;5115885;27;20047;-57
2022/04/11 09:16:42;;;;;;;2.45;1.55;;;21.00;40.90;;;;;;5114217;27;20052;-57
2022/04/11 09:19:18;;;;;;;10.55;2.13;;;21.00;40.90;;;;;;5115383;27;20043;-57
2022/04/11 09:21:44;;;;;;;2.22;1.83;;;21.00;40.90;;;;;;5118276;27;20039;-57
2022/04/11 09:24:15;;;;;;;2.35;1.67;;;21.00;40.90;;;;;;5117239;27;20097;-57
2022/04/11 09:26:40;;;;;;;4.30;1.50;;;21.00;41.00;;;;;;5114736;27;20075;-57
2022/04/11 09:29:07;;;;;;;1.98;1.30;;;21.00;40.90;;;;;;5116056;27;20115;-58
2022/04/11 09:31:32;;;;;;;2.25;1.48;;;21.00;41.00;;;;;;5113162;27;20126;-57
2022/04/11 09:34:12;;;;;;;4.07;1.45;;;21.00;41.10;;;;;;5116581;27;20095;-57
2022/04/11 09:36:54;;;;;;;3.63;1.73;;;21.10;41.20;;;;;;5116185;27;20043;-57
2022/04/11 09:39:22;;;;;;;3.15;1.92;;;21.10;41.00;;;;;;5117368;27;20043;-57
2022/04/11 09:41:49;;;;;;;2.85;1.90;;;21.10;40.40;;;;;;5116207;27;20509;-58
2022/04/11 09:44:40;;;;;;;2.20;2.00;;;21.10;39.90;;;;;;5115348;27;20490;-57
2022/04/11 09:47:06;;;;;;;2.35;1.60;;;21.10;39.80;;;;;;5114526;27;20539;-57
2022/04/11 09:49:33;;;;;;;2.13;1.63;;;21.10;39.90;;;;;;5115504;27;20039;-57
2022/04/11 09:52:15;;;;;;;3.13;2.00;;;21.10;39.80;;;;;;5114956;27;20560;-58
2022/04/11 09:54:44;;;;;;;3.05;2.25;;;21.10;39.30;;;;;;5114923;27;20051;-58
2022/04/11 09:57:14;;;;;;;5.28;2.35;;;21.10;39.00;;;;;;5114233;27;20039;-58
2022/04/11 09:59:41;;;;;;;3.45;1.88;;;21.10;38.80;;;;;;5116459;27;20442;-58
2022/04/11 10:02:07;;;;;;;3.47;2.17;;;21.10;38.80;;;;;;5114788;27;20578;-58
2022/04/11 10:04:34;;;;;;;5.32;3.10;;;21.10;38.70;;;;;;5115329;27;20074;-58
2022/04/11 10:07:01;;;;;;;4.07;2.35;;;21.10;38.10;;;;;;5112804;27;20102;-58
2022/04/11 10:09:27;;;;;;;2.70;2.10;;;21.10;38.30;;;;;;5114778;27;20047;-57
2022/04/11 10:11:54;;;;;;;3.13;2.10;;;21.10;38.40;;;;;;5117951;27;20111;-58
2022/04/11 10:14:28;;;;;;;2.72;1.90;;;21.10;38.50;;;;;;5118934;27;20051;-57
2022/04/11 10:16:56;;;;;;;6.07;2.00;;;21.10;38.60;;;;;;5116194;27;20387;-57
2022/04/11 10:19:29;;;;;;;1.60;1.50;;;21.10;38.60;;;;;;5115357;27;20699;-57
2022/04/11 10:21:57;;;;;;;2.05;1.50;;;21.10;38.60;;;;;;5114245;27;20036;-58
2022/04/11 10:24:22;;;;;;;2.28;1.67;;;21.10;38.70;;;;;;5114717;27;20766;-58
2022/04/11 10:26:53;;;;;;;2.17;1.48;;;21.10;38.80;;;;;;5112130;27;20043;-58
2022/04/11 10:29:38;;;;;;;3.15;1.80;;;21.10;38.80;;;;;;5114366;27;20043;-57
2022/04/11 10:32:15;;;;;;;1.92;1.48;;;21.10;38.80;;;;;;5112618;27;20078;-58
2022/04/11 10:34:55;;;;;;;1.95;1.35;;;21.10;38.80;;;;;;5113282;27;20044;-57
2022/04/11 10:37:26;;;;;;;2.60;1.63;;;21.10;38.90;;;;;;5113574;27;20054;-58
2022/04/11 10:39:53;;;;;;;2.03;1.40;;;21.10;38.90;;;;;;5114592;27;20127;-57
2022/04/11 10:42:25;;;;;;;1.95;1.40;;;21.10;39.00;;;;;;5113801;27;20047;-59
2022/04/11 10:44:54;;;;;;;1.75;1.40;;;21.10;39.00;;;;;;5112166;27;20139;-58
2022/04/11 10:47:30;;;;;;;2.55;1.40;;;21.20;39.10;;;;;;5113787;27;20044;-58
2022/04/11 10:49:55;;;;;;;4.90;1.90;;;21.20;39.10;;;;;;5114102;27;20771;-58
2022/04/11 10:52:27;;;;;;;8.23;2.50;;;21.20;38.80;;;;;;5109406;27;20053;-58
2022/04/11 10:54:57;;;;;;;8.98;3.63;;;21.20;38.50;;;;;;5109596;27;20059;-58
2022/04/11 10:57:37;;;;;;;14.55;4.80;;;21.20;38.70;;;;;;5113406;27;20055;-57
2022/04/11 11:00:06;;;;;;;8.48;4.18;;;21.20;38.70;;;;;;5115847;27;20063;-58
2022/04/11 11:02:56;;;;;;;15.30;5.25;;;21.20;38.70;;;;;;5114293;27;20112;-58
2022/04/11 11:05:48;;;;;;;13.10;5.03;;;21.20;38.70;;;;;;5121459;27;20048;-57
2022/04/11 11:08:14;;;;;;;18.33;5.35;;;21.20;38.90;;;;;;5113223;27;20056;-58
2022/04/11 11:10:58;;;;;;;17.20;5.53;;;21.20;39.00;;;;;;5113246;27;20131;-57
2022/04/11 11:13:28;;;;;;;12.55;5.72;;;21.20;39.10;;;;;;5114557;27;20085;-58
2022/04/11 11:16:20;;;;;;;18.55;5.70;;;21.20;39.20;;;;;;5114591;27;20629;-57
2022/04/11 11:18:46;;;;;;;17.10;6.22;;;21.20;39.30;;;;;;5112303;27;20448;-56
2022/04/11 11:21:19;;;;;;;17.80;6.63;;;21.20;39.40;;;;;;5109032;27;20043;-58
2022/04/11 11:24:02;;;;;;;25.10;6.95;;;21.20;39.50;;;;;;5112643;27;20035;-57
2022/04/11 11:26:38;;;;;;;20.23;7.47;;;21.20;39.60;;;;;;5114629;27;20046;-58
2022/04/11 11:29:23;;;;;;;22.98;7.40;;;21.20;39.70;;;;;;5112622;27;20104;-57
2022/04/11 11:31:52;;;;;;;25.83;8.43;;;21.20;39.90;;;;;;5111810;27;20050;-57
2022/04/11 11:34:20;;;;;;;25.90;8.68;;;21.20;40.00;;;;;;5111476;27;20043;-57
2022/04/11 11:36:46;;;;;;;24.13;8.75;;;21.20;40.00;;;;;;5112203;27;20040;-58
2022/04/11 11:39:19;;;;;;;22.77;8.40;;;21.20;40.10;;;;;;5111795;27;20055;-57
2022/04/11 11:41:46;;;;;;;25.05;8.23;;;21.20;40.30;;;;;;5111170;27;20130;-58
2022/04/11 11:44:12;;;;;;;23.23;7.15;;;21.20;40.20;;;;;;5113769;27;20120;-57
2022/04/11 11:46:58;;;;;;;19.35;7.32;;;21.20;40.30;;;;;;5115090;27;20047;-57
2022/04/11 11:49:37;;;;;;;22.08;6.78;;;21.20;40.30;;;;;;5114075;27;20039;-58
2022/04/11 11:52:02;;;;;;;17.83;7.18;;;21.20;40.10;;;;;;5114370;27;20047;-58
2022/04/11 11:54:34;;;;;;;18.45;6.25;;;21.20;40.00;;;;;;5113089;27;20110;-58
2022/04/11 11:56:59;;;;;;;15.23;6.30;;;21.20;40.00;;;;;;5111610;27;20043;-58
2022/04/11 11:59:25;;;;;;;19.25;6.18;;;21.20;40.00;;;;;;5113059;27;20096;-58
2022/04/11 12:04:36;;;;;;;13.88;5.93;;;21.20;40.00;;;;;;5112530;27;20642;-58
2022/04/11 12:07:01;;;;;;;17.80;6.50;;;21.20;40.00;;;;;;5113807;27;20144;-58
2022/04/11 12:09:41;;;;;;;12.63;5.75;;;21.20;40.00;;;;;;5113121;28;20089;-57
2022/04/11 12:12:08;;;;;;;17.13;5.93;;;21.20;40.00;;;;;;5112823;27;20090;-58
2022/04/11 12:15:00;;;;;;;15.80;5.10;;;21.20;40.00;;;;;;5113049;28;20097;-58
2022/04/11 12:17:32;;;;;;;15.23;5.13;;;21.20;39.90;;;;;;5113104;28;20047;-57
2022/04/11 12:20:17;;;;;;;12.93;4.97;;;21.20;39.90;;;;;;5118794;27;20415;-57
2022/04/11 12:23:10;;;;;;;16.45;5.05;;;21.20;39.80;;;;;;5117473;27;20066;-58
2022/04/11 12:25:44;;;;;;;14.77;5.25;;;21.20;40.00;;;;;;5117692;27;20035;-58
2022/04/11 12:28:25;;;;;;;11.93;4.55;;;21.20;40.00;;;;;;5118862;27;20043;-58
2022/04/11 12:31:03;;;;;;;13.73;4.45;;;21.20;39.90;;;;;;5118086;27;20392;-58
2022/04/11 12:33:33;;;;;;;15.43;4.70;;;21.20;39.90;;;;;;5117235;27;20082;-66
2022/04/11 12:36:26;;;;;;;11.35;4.18;;;21.20;39.80;;;;;;5119325;27;20120;-57
2022/04/11 12:38:54;;;;;;;12.52;4.40;;;21.20;39.90;;;;;;5119253;27;20054;-57
2022/04/11 12:41:36;;;;;;;14.50;4.20;;;21.20;39.90;;;;;;5117292;27;20047;-57
2022/04/11 12:44:17;;;;;;;12.18;4.32;;;21.20;39.90;;;;;;5116050;27;20671;-57
2022/04/11 12:47:01;;;;;;;8.32;3.95;;;21.20;39.90;;;;;;5116277;27;20086;-57
2022/04/11 12:49:48;;;;;;;11.63;4.32;;;21.30;40.00;;;;;;5115847;27;20051;-57
2022/04/11 12:52:18;;;;;;;8.55;3.70;;;21.30;40.00;;;;;;5114812;27;20078;-58
2022/04/11 12:55:03;;;;;;;7.38;3.78;;;21.30;40.00;;;;;;5118104;27;20055;-59